Time;durP1;ratioP1;P1;durP2;ratioP2;P2;SDS_P1;SDS_P2;PMS_P1;PMS_P2;Temp;Humidity;BMP_temperature;BMP_pressure;BME280_temperature;BME280_humidity;BME280_pressure;Samples;Min_cycle;Max_cycle;Signal;HPM_P1;HPM_P2
2022/01/27 00:05:48;;;;;;;46.83;13.65;;;;;;;;;;558628;28;10023703;-72
2022/01/27 00:08:21;;;;;;;50.70;16.13;;;;;;;;;;5049701;28;20699;-71
2022/01/27 00:10:56;;;;;;;53.33;16.42;;;;;;;;;;5054114;28;20087;-71
2022/01/27 00:13:30;;;;;;;48.22;16.73;;;;;;;;;;5052336;28;20053;-71
2022/01/27 00:16:13;;;;;;;53.72;16.95;;;;;;;;;;5052809;28;20055;-71
2022/01/27 00:18:42;;;;;;;52.22;15.15;;;;;;;;;;5050452;28;20047;-72
2022/01/27 00:21:13;;;;;;;50.40;17.52;;;;;;;;;;5050526;28;20061;-72
2022/01/27 00:23:44;;;;;;;48.70;16.55;;;;;;;;;;5053615;28;20103;-72
2022/01/27 00:26:25;;;;;;;47.92;15.30;;;;;;;;;;5056840;28;20535;-72
2022/01/27 00:28:54;;;;;;;42.28;15.18;;;;;;;;;;5050122;28;20045;-71
2022/01/27 00:31:49;;;;;;;52.80;14.57;;;;;;;;;;5050940;28;20450;-71
2022/01/27 00:34:17;;;;;;;50.10;16.42;;;;;;;;;;5045711;28;20100;-72
2022/01/27 00:37:02;;;;;;;41.60;15.52;;;;;;;;;;5049534;28;20084;-72
2022/01/27 00:39:30;;;;;;;45.58;15.65;;;;;;;;;;5038338;28;20049;-72
2022/01/27 00:42:02;;;;;;;47.58;15.23;;;;;;;;;;5046379;28;20142;-72
2022/01/27 00:48:05;;;;;;;55.03;16.15;;;;;;;;;;5047001;28;20409;-71
2022/01/27 00:50:34;;;;;;;49.85;16.55;;;;;;;;;;5047616;28;20829;-71
2022/01/27 00:53:16;;;;;;;54.05;18.52;;;;;;;;;;5045339;28;20102;-72
2022/01/27 00:55:45;;;;;;;58.50;17.10;;;;;;;;;;5042473;28;20045;-72
2022/01/27 00:58:26;;;;;;;50.47;15.75;;;;;;;;;;5047054;28;20480;-72
2022/01/27 01:01:00;;;;;;;47.78;16.23;;;;;;;;;;5041088;28;20094;-72
2022/01/27 01:03:33;;;;;;;53.47;16.25;;;;;;;;;;5041517;28;20120;-72
2022/01/27 01:06:23;;;;;;;47.40;16.33;;;;;;;;;;5049912;28;20048;-71
2022/01/27 01:12:19;;;;;;;50.85;15.80;;;;;;;;;;5037641;28;20493;-71
2022/01/27 01:14:51;;;;;;;60.10;17.15;;;;;;;;;;5050399;28;20080;-71
2022/01/27 01:17:36;;;;;;;52.00;17.45;;;;;;;;;;5050391;28;20143;-71
2022/01/27 01:20:23;;;;;;;56.08;16.58;;;;;;;;;;5048449;28;20072;-72
2022/01/27 01:31:16;;;;;;;51.70;16.95;;;;;;;;;;5047625;28;20060;-72
2022/01/27 01:33:46;;;;;;;57.75;16.50;;;;;;;;;;5047853;28;20508;-72
2022/01/27 01:36:34;;;;;;;53.35;17.35;;;;;;;;;;5047312;28;20045;-72
2022/01/27 01:39:02;;;;;;;47.10;15.95;;;;;;;;;;5046504;28;20045;-72
2022/01/27 01:41:32;;;;;;;51.72;16.38;;;;;;;;;;5041341;28;20092;-71
2022/01/27 01:44:00;;;;;;;55.03;16.83;;;;;;;;;;5048004;28;20083;-71
2022/01/27 01:46:29;;;;;;;51.05;16.85;;;;;;;;;;5049897;28;20063;-71
2022/01/27 01:48:58;;;;;;;56.00;15.90;;;;;;;;;;5040637;28;20611;-72
2022/01/27 01:51:27;;;;;;;56.95;17.52;;;;;;;;;;5046156;28;20052;-72
2022/01/27 01:53:55;;;;;;;53.08;16.67;;;;;;;;;;5041342;28;20072;-72
2022/01/27 01:56:24;;;;;;;55.70;17.10;;;;;;;;;;5046026;28;20148;-71
2022/01/27 01:58:53;;;;;;;50.38;15.57;;;;;;;;;;5048301;28;20468;-71
2022/01/27 02:01:22;;;;;;;49.63;16.90;;;;;;;;;;5041250;28;20072;-71
2022/01/27 02:03:50;;;;;;;60.72;17.42;;;;;;;;;;5045229;28;20059;-71
2022/01/27 02:06:25;;;;;;;57.63;17.15;;;;;;;;;;5049711;28;20175;-71
2022/01/27 02:19:58;;;;;;;52.63;17.30;;;;;;;;;;5044178;28;20060;-72
2022/01/27 02:22:26;;;;;;;50.33;16.00;;;;;;;;;;5050206;28;20136;-71
2022/01/27 02:24:55;;;;;;;56.17;17.13;;;;;;;;;;5044790;28;20172;-71
2022/01/27 02:27:24;;;;;;;45.90;17.20;;;;;;;;;;5045376;28;20037;-72
2022/01/27 02:29:52;;;;;;;53.58;18.23;;;;;;;;;;5043770;28;20094;-72
2022/01/27 02:32:22;;;;;;;56.63;17.25;;;;;;;;;;5049341;28;20118;-71
2022/01/27 02:34:50;;;;;;;49.92;17.15;;;;;;;;;;5042649;28;20536;-72
2022/01/27 02:37:20;;;;;;;49.35;17.00;;;;;;;;;;1333290;28;10022770;-72
2022/01/27 02:39:49;;;;;;;62.33;17.65;;;;;;;;;;3997732;28;10001127;-72
2022/01/27 02:42:21;;;;;;;56.05;18.25;;;;;;;;;;5045516;28;20080;-71
2022/01/27 02:44:58;;;;;;;50.58;16.85;;;;;;;;;;5046433;28;20132;-72
2022/01/27 02:47:27;;;;;;;56.53;17.77;;;;;;;;;;5038510;28;20072;-72
2022/01/27 02:49:55;;;;;;;52.33;18.65;;;;;;;;;;5047173;28;20386;-72
2022/01/27 02:52:24;;;;;;;56.95;19.10;;;;;;;;;;5049007;28;20045;-72
2022/01/27 02:54:53;;;;;;;57.53;18.10;;;;;;;;;;5045728;28;20110;-72
2022/01/27 02:57:23;;;;;;;58.95;17.85;;;;;;;;;;5045648;28;20128;-71
2022/01/27 02:59:52;;;;;;;48.08;16.38;;;;;;;;;;5046050;28;20049;-72
2022/01/27 03:02:21;;;;;;;57.53;17.92;;;;;;;;;;5048641;28;20717;-72
2022/01/27 03:04:49;;;;;;;57.22;18.08;;;;;;;;;;5044775;28;20087;-72
2022/01/27 03:07:18;;;;;;;49.90;17.30;;;;;;;;;;5049432;28;20371;-73
2022/01/27 03:09:48;;;;;;;53.97;19.65;;;;;;;;;;5043298;28;20493;-72
2022/01/27 03:12:17;;;;;;;54.67;17.23;;;;;;;;;;5040460;28;20045;-72
2022/01/27 03:14:45;;;;;;;63.03;21.02;;;;;;;;;;5043992;28;20048;-72
2022/01/27 03:17:13;;;;;;;49.85;17.00;;;;;;;;;;5051881;28;20060;-71
2022/01/27 03:19:42;;;;;;;51.97;18.15;;;;;;;;;;5051538;28;20049;-72
2022/01/27 03:22:10;;;;;;;50.25;18.20;;;;;;;;;;5050388;28;20065;-72
2022/01/27 03:24:39;;;;;;;58.60;19.83;;;;;;;;;;5048166;28;20485;-72
2022/01/27 03:27:16;;;;;;;60.67;20.50;;;;;;;;;;5045617;28;20568;-72
2022/01/27 03:29:44;;;;;;;52.08;18.27;;;;;;;;;;5052170;28;20079;-72
2022/01/27 03:32:13;;;;;;;61.92;18.90;;;;;;;;;;5049212;28;20049;-72
2022/01/27 03:34:41;;;;;;;50.92;16.17;;;;;;;;;;5051114;28;20053;-72
2022/01/27 03:37:10;;;;;;;46.75;16.60;;;;;;;;;;5041541;28;20567;-71
2022/01/27 03:39:40;;;;;;;50.58;16.73;;;;;;;;;;5049477;28;20136;-72
2022/01/27 03:42:10;;;;;;;53.72;17.27;;;;;;;;;;5046611;28;20053;-71
2022/01/27 03:44:39;;;;;;;49.50;17.15;;;;;;;;;;5046785;28;20086;-71
2022/01/27 03:47:07;;;;;;;54.40;18.25;;;;;;;;;;5051791;28;20496;-71
2022/01/27 03:49:36;;;;;;;53.20;18.15;;;;;;;;;;5049261;28;20393;-72
2022/01/27 03:52:05;;;;;;;55.03;18.23;;;;;;;;;;5043311;28;20435;-71
2022/01/27 03:54:33;;;;;;;54.88;18.20;;;;;;;;;;5049136;28;20094;-72
2022/01/27 03:57:01;;;;;;;43.65;15.93;;;;;;;;;;5039516;28;20076;-72
2022/01/27 03:59:31;;;;;;;54.25;17.42;;;;;;;;;;5050606;28;20064;-72
2022/01/27 04:02:04;;;;;;;57.15;19.27;;;;;;;;;;5044664;28;20059;-72
2022/01/27 04:04:33;;;;;;;48.22;17.05;;;;;;;;;;5041687;28;20068;-72
2022/01/27 04:07:03;;;;;;;58.90;18.35;;;;;;;;;;5049230;28;20128;-72
2022/01/27 04:09:31;;;;;;;54.90;18.02;;;;;;;;;;5051069;28;20122;-72
2022/01/27 04:12:00;;;;;;;53.65;17.65;;;;;;;;;;5051429;28;20049;-72
2022/01/27 04:14:28;;;;;;;55.67;18.83;;;;;;;;;;5051469;28;20071;-72
2022/01/27 04:16:58;;;;;;;51.40;17.40;;;;;;;;;;5051668;28;20131;-72
2022/01/27 04:19:26;;;;;;;52.58;18.48;;;;;;;;;;5054216;28;20051;-72
2022/01/27 04:21:54;;;;;;;49.83;16.58;;;;;;;;;;5054604;28;20066;-72
2022/01/27 04:24:23;;;;;;;51.05;18.00;;;;;;;;;;5054998;28;20385;-71
2022/01/27 04:26:59;;;;;;;54.60;18.00;;;;;;;;;;5054685;28;20076;-72
2022/01/27 04:29:29;;;;;;;62.05;18.77;;;;;;;;;;5051329;28;20068;-72
2022/01/27 04:32:01;;;;;;;56.75;17.17;;;;;;;;;;5051077;28;20050;-71
2022/01/27 04:34:31;;;;;;;49.55;17.35;;;;;;;;;;5042130;28;20048;-71
2022/01/27 04:37:00;;;;;;;59.38;19.05;;;;;;;;;;5037067;28;20038;-71
2022/01/27 04:39:34;;;;;;;54.70;17.20;;;;;;;;;;5041965;28;20128;-72
2022/01/27 04:42:08;;;;;;;64.65;19.13;;;;;;;;;;5045248;28;20120;-71
2022/01/27 04:44:47;;;;;;;54.15;16.55;;;;;;;;;;5040865;28;20437;-72
2022/01/27 04:47:23;;;;;;;52.47;17.63;;;;;;;;;;5041999;28;20476;-71
2022/01/27 04:49:52;;;;;;;48.33;16.35;;;;;;;;;;5036071;28;20108;-72
2022/01/27 04:52:44;;;;;;;41.97;15.86;;;;;;;;;;3037802;28;10003816;-72
2022/01/27 04:55:13;;;;;;;56.42;16.65;;;;;;;;;;3303739;28;10001742;-71
2022/01/27 04:57:44;;;;;;;45.65;16.15;;;;;;;;;;5039879;28;20057;-72
2022/01/27 05:00:15;;;;;;;55.25;17.67;;;;;;;;;;5035105;28;20519;-72
2022/01/27 05:02:49;;;;;;;52.38;17.63;;;;;;;;;;5039343;28;20451;-72
2022/01/27 05:05:21;;;;;;;49.35;16.48;;;;;;;;;;5051285;28;20049;-72
2022/01/27 05:07:56;;;;;;;53.83;17.98;;;;;;;;;;5042819;28;20132;-72
2022/01/27 05:10:28;;;;;;;56.00;18.33;;;;;;;;;;5051037;28;20120;-72
2022/01/27 05:13:04;;;;;;;48.05;16.10;;;;;;;;;;5043485;28;20057;-72
2022/01/27 05:15:34;;;;;;;48.33;17.75;;;;;;;;;;5043553;28;20139;-72
2022/01/27 05:18:04;;;;;;;49.88;16.55;;;;;;;;;;5046101;28;20041;-71
2022/01/27 05:20:32;;;;;;;57.72;17.13;;;;;;;;;;5036705;28;20544;-72
2022/01/27 05:23:00;;;;;;;48.17;17.15;;;;;;;;;;5043332;28;20111;-72
2022/01/27 05:25:29;;;;;;;51.75;18.67;;;;;;;;;;5042605;28;20041;-72
2022/01/27 05:27:58;;;;;;;51.25;17.58;;;;;;;;;;5031921;28;20129;-72
2022/01/27 05:30:26;;;;;;;46.38;16.90;;;;;;;;;;5033277;28;20100;-71
2022/01/27 05:32:54;;;;;;;42.15;16.48;;;;;;;;;;5035518;28;20051;-71
2022/01/27 05:35:24;;;;;;;44.60;16.38;;;;;;;;;;5037410;28;20235;-71
2022/01/27 05:37:53;;;;;;;40.35;15.65;;;;;;;;;;5046654;28;20080;-72
2022/01/27 05:40:21;;;;;;;56.00;18.02;;;;;;;;;;5045427;28;20084;-71
2022/01/27 05:42:49;;;;;;;39.35;16.17;;;;;;;;;;5047423;28;20048;-71
2022/01/27 05:45:18;;;;;;;45.85;16.50;;;;;;;;;;5038662;28;20151;-71
2022/01/27 05:47:47;;;;;;;51.35;18.25;;;;;;;;;;5045604;28;20156;-71
2022/01/27 05:50:15;;;;;;;51.20;17.35;;;;;;;;;;5033648;28;20103;-72
2022/01/27 05:52:46;;;;;;;46.40;15.75;;;;;;;;;;5044438;28;20057;-72
2022/01/27 05:55:15;;;;;;;44.40;16.75;;;;;;;;;;5039650;28;20056;-72
2022/01/27 05:57:43;;;;;;;44.92;15.18;;;;;;;;;;5039930;28;20124;-72
2022/01/27 06:00:12;;;;;;;48.53;16.60;;;;;;;;;;5043714;28;20085;-72
2022/01/27 06:02:40;;;;;;;45.70;15.80;;;;;;;;;;5046006;28;20542;-72
2022/01/27 06:05:17;;;;;;;29.87;11.13;;;;;;;;;;1605631;28;10021848;-72
2022/01/27 06:07:47;;;;;;;46.05;16.05;;;;;;;;;;3993219;28;10001648;-72
2022/01/27 06:10:15;;;;;;;41.00;15.05;;;;;;;;;;5038252;28;20159;-72
2022/01/27 06:12:52;;;;;;;42.85;16.33;;;;;;;;;;5036452;28;20523;-71
2022/01/27 06:15:21;;;;;;;45.80;15.75;;;;;;;;;;5039838;28;20057;-71
2022/01/27 06:17:49;;;;;;;43.13;16.02;;;;;;;;;;5042965;28;20603;-72
2022/01/27 06:20:19;;;;;;;44.13;17.15;;;;;;;;;;5044143;28;20056;-72
2022/01/27 06:22:49;;;;;;;47.63;16.52;;;;;;;;;;5044558;28;20127;-72
2022/01/27 06:25:17;;;;;;;37.17;15.32;;;;;;;;;;5043268;28;20436;-72
2022/01/27 06:27:45;;;;;;;38.10;15.75;;;;;;;;;;5032919;28;20129;-72
2022/01/27 06:30:14;;;;;;;42.00;16.67;;;;;;;;;;5043601;28;20080;-72
2022/01/27 06:32:42;;;;;;;41.47;16.08;;;;;;;;;;5043311;28;20144;-72
2022/01/27 06:35:10;;;;;;;45.47;16.20;;;;;;;;;;5043620;28;20272;-72
2022/01/27 06:37:41;;;;;;;40.22;15.82;;;;;;;;;;5042929;28;20561;-72
2022/01/27 06:40:13;;;;;;;41.55;15.20;;;;;;;;;;5043094;28;20412;-72
2022/01/27 06:42:42;;;;;;;37.22;15.80;;;;;;;;;;5042112;28;20496;-72
2022/01/27 06:45:10;;;;;;;39.53;15.70;;;;;;;;;;5043812;28;20055;-72
2022/01/27 06:47:39;;;;;;;44.70;15.23;;;;;;;;;;5044596;28;20084;-72
2022/01/27 06:50:08;;;;;;;39.05;15.48;;;;;;;;;;5044611;28;20045;-72
2022/01/27 06:52:36;;;;;;;39.42;14.88;;;;;;;;;;5046986;28;20052;-72
2022/01/27 06:55:06;;;;;;;40.92;14.68;;;;;;;;;;5044405;28;20497;-72
2022/01/27 06:57:38;;;;;;;39.28;15.00;;;;;;;;;;5044718;28;20045;-72
2022/01/27 07:00:07;;;;;;;37.60;14.48;;;;;;;;;;5045093;28;20077;-72
2022/01/27 07:02:35;;;;;;;33.13;14.45;;;;;;;;;;5044052;28;20127;-72
2022/01/27 07:05:04;;;;;;;40.50;14.95;;;;;;;;;;5043691;28;20103;-72
2022/01/27 07:07:32;;;;;;;35.05;15.32;;;;;;;;;;5043657;28;20509;-72
2022/01/27 07:10:01;;;;;;;37.88;14.40;;;;;;;;;;5044934;28;20107;-72
2022/01/27 07:12:30;;;;;;;38.05;14.82;;;;;;;;;;5043808;28;20049;-72
2022/01/27 07:15:00;;;;;;;45.00;15.80;;;;;;;;;;5045261;28;20079;-72
2022/01/27 07:17:29;;;;;;;36.22;14.40;;;;;;;;;;5044865;28;20542;-72
2022/01/27 07:19:57;;;;;;;39.08;14.40;;;;;;;;;;5044355;28;20446;-72
2022/01/27 07:22:26;;;;;;;36.30;13.70;;;;;;;;;;5043663;28;20091;-72
2022/01/27 07:24:54;;;;;;;39.13;14.75;;;;;;;;;;5044902;28;20326;-72
2022/01/27 07:27:22;;;;;;;43.55;14.90;;;;;;;;;;5043915;28;20098;-72
2022/01/27 07:29:51;;;;;;;37.10;14.40;;;;;;;;;;5043756;28;20483;-72
2022/01/27 07:32:20;;;;;;;35.17;13.98;;;;;;;;;;5044223;28;20059;-72
2022/01/27 07:34:49;;;;;;;32.85;13.00;;;;;;;;;;5044246;28;20095;-72
2022/01/27 07:37:18;;;;;;;31.80;12.63;;;;;;;;;;5044308;28;20068;-72
2022/01/27 07:39:46;;;;;;;27.35;13.18;;;;;;;;;;5043632;28;20485;-72
2022/01/27 07:42:15;;;;;;;27.52;11.68;;;;;;;;;;5044698;28;20060;-72
2022/01/27 07:44:44;;;;;;;31.45;13.00;;;;;;;;;;5045180;28;20128;-72
2022/01/27 07:47:13;;;;;;;35.85;12.27;;;;;;;;;;5043876;28;20139;-72
2022/01/27 07:49:43;;;;;;;32.83;13.25;;;;;;;;;;5043048;28;20578;-72
2022/01/27 07:52:12;;;;;;;31.98;12.50;;;;;;;;;;5043312;28;20436;-72
2022/01/27 07:54:41;;;;;;;32.42;13.00;;;;;;;;;;5044417;28;20076;-73
2022/01/27 07:57:09;;;;;;;30.42;13.32;;;;;;;;;;5048664;28;20419;-73
2022/01/27 07:59:38;;;;;;;31.15;12.43;;;;;;;;;;5046378;28;20091;-72
2022/01/27 08:02:07;;;;;;;30.38;11.50;;;;;;;;;;5048260;28;20048;-73
2022/01/27 08:04:57;;;;;;;33.42;11.24;;;;;;;;;;2682163;28;10003930;-73
2022/01/27 08:07:26;;;;;;;29.63;12.85;;;;;;;;;;3649888;28;10001238;-74
2022/01/27 08:09:54;;;;;;;31.73;12.32;;;;;;;;;;5041115;28;20519;-75
2022/01/27 08:12:23;;;;;;;28.20;12.30;;;;;;;;;;5043676;28;20150;-74
2022/01/27 08:14:52;;;;;;;31.63;12.13;;;;;;;;;;5043286;28;20462;-74
2022/01/27 08:17:20;;;;;;;25.35;10.15;;;;;;;;;;5050858;28;20057;-73
2022/01/27 08:19:48;;;;;;;35.17;10.60;;;;;;;;;;5031167;28;20057;-75
2022/01/27 08:22:24;;;;;;;25.20;10.90;;;;;;;;;;5028582;28;20061;-73
2022/01/27 08:24:52;;;;;;;25.10;10.20;;;;;;;;;;5026996;28;20057;-74
2022/01/27 08:27:26;;;;;;;34.40;12.23;;;;;;;;;;5027611;28;20136;-73
2022/01/27 08:30:02;;;;;;;27.67;10.30;;;;;;;;;;5025727;28;20480;-74
2022/01/27 08:32:44;;;;;;;24.67;10.43;;;;;;;;;;5029831;28;20045;-74
2022/01/27 08:35:13;;;;;;;19.55;8.43;;;;;;;;;;5030717;28;20080;-74
2022/01/27 08:37:43;;;;;;;24.02;9.65;;;;;;;;;;5027311;28;20049;-74
2022/01/27 08:40:14;;;;;;;22.88;8.55;;;;;;;;;;5029563;28;20057;-74
2022/01/27 08:43:02;;;;;;;21.38;8.65;;;;;;;;;;5031373;28;20045;-74
2022/01/27 08:45:31;;;;;;;18.55;8.82;;;;;;;;;;5031402;28;20539;-74
2022/01/27 08:48:01;;;;;;;21.45;9.30;;;;;;;;;;5026941;28;20050;-74
2022/01/27 08:50:30;;;;;;;21.05;8.65;;;;;;;;;;5029404;28;20037;-73
2022/01/27 08:53:00;;;;;;;25.70;9.00;;;;;;;;;;5028108;28;20456;-73
2022/01/27 08:55:30;;;;;;;18.48;8.70;;;;;;;;;;5028922;28;20045;-73
2022/01/27 08:57:59;;;;;;;23.75;8.65;;;;;;;;;;5026708;28;20054;-74
2022/01/27 09:00:27;;;;;;;16.58;7.00;;;;;;;;;;5013848;28;20064;-73
2022/01/27 09:02:56;;;;;;;19.63;7.82;;;;;;;;;;5012206;28;20509;-73
2022/01/27 09:05:25;;;;;;;20.10;8.05;;;;;;;;;;5028421;28;20128;-73
2022/01/27 09:07:56;;;;;;;22.48;7.97;;;;;;;;;;5016072;28;20148;-73
2022/01/27 09:10:31;;;;;;;18.95;6.78;;;;;;;;;;5019216;28;20412;-73
2022/01/27 09:13:00;;;;;;;;;;;;;;;;;;5017261;28;20050;-73
2022/01/27 09:15:29;;;;;;;17.52;8.88;;;;;;;;;;5027652;28;20361;-74
2022/01/27 09:17:59;;;;;;;24.42;7.93;;;;;;;;;;5022704;28;20085;-73
2022/01/27 09:20:28;;;;;;;20.60;7.50;;;;;;;;;;5050200;28;20496;-73
2022/01/27 09:22:58;;;;;;;17.63;7.03;;;;;;;;;;5043842;28;20048;-73
2022/01/27 09:25:32;;;;;;;23.95;8.10;;;;;;;;;;5031344;28;20056;-74
2022/01/27 09:28:02;;;;;;;16.88;6.40;;;;;;;;;;5045454;28;20053;-73
2022/01/27 09:30:30;;;;;;;19.30;7.47;;;;;;;;;;5047176;28;20057;-72
2022/01/27 09:32:59;;;;;;;20.73;7.38;;;;;;;;;;5047314;28;20461;-72
2022/01/27 09:35:28;;;;;;;17.85;7.30;;;;;;;;;;5048193;28;20132;-72
2022/01/27 09:37:57;;;;;;;17.15;7.47;;;;;;;;;;5045393;28;20045;-73
2022/01/27 09:40:26;;;;;;;17.45;7.28;;;;;;;;;;5049443;28;20099;-73
2022/01/27 09:42:56;;;;;;;17.48;6.53;;;;;;;;;;5049696;28;20127;-73
2022/01/27 09:45:26;;;;;;;18.77;7.47;;;;;;;;;;5047363;28;20524;-73
2022/01/27 09:47:58;;;;;;;16.45;7.38;;;;;;;;;;5048028;28;20493;-72
2022/01/27 09:50:36;;;;;;;17.40;6.40;;;;;;;;;;5042760;28;20045;-72
2022/01/27 09:53:05;;;;;;;13.65;5.80;;;;;;;;;;5045115;28;20049;-72
2022/01/27 09:55:36;;;;;;;13.20;5.85;;;;;;;;;;5043974;28;20558;-73
2022/01/27 09:58:08;;;;;;;12.90;5.85;;;;;;;;;;5043325;28;20048;-73
2022/01/27 10:00:37;;;;;;;14.93;6.45;;;;;;;;;;5048642;28;20071;-73
2022/01/27 10:03:07;;;;;;;14.32;5.85;;;;;;;;;;5040395;28;20052;-73
2022/01/27 10:05:39;;;;;;;16.25;5.70;;;;;;;;;;1406042;28;10022736;-73
2022/01/27 10:08:11;;;;;;;9.57;4.53;;;;;;;;;;4010310;28;10001659;-73
2022/01/27 10:10:41;;;;;;;12.15;4.95;;;;;;;;;;5037316;28;20483;-72
2022/01/27 10:13:12;;;;;;;10.30;4.43;;;;;;;;;;5049943;28;20504;-73
2022/01/27 10:15:46;;;;;;;12.37;4.07;;;;;;;;;;5036771;28;20049;-74
2022/01/27 10:18:16;;;;;;;8.05;3.83;;;;;;;;;;5046800;28;20286;-73
2022/01/27 10:20:45;;;;;;;8.75;3.28;;;;;;;;;;5046901;28;20057;-73
2022/01/27 10:23:18;;;;;;;11.23;3.10;;;;;;;;;;5044915;28;20077;-72
2022/01/27 10:25:51;;;;;;;13.35;4.20;;;;;;;;;;5047739;28;20040;-74
2022/01/27 10:28:30;;;;;;;6.65;3.42;;;;;;;;;;5047388;28;20045;-71
2022/01/27 10:31:02;;;;;;;8.05;3.15;;;;;;;;;;5047791;28;20072;-71
2022/01/27 10:33:51;;;;;;;6.15;2.60;;;;;;;;;;5043902;28;20097;-71
2022/01/27 10:36:21;;;;;;;6.57;2.80;;;;;;;;;;5047870;28;20056;-72
2022/01/27 10:38:55;;;;;;;8.57;2.33;;;;;;;;;;5044905;28;20076;-71
2022/01/27 10:41:24;;;;;;;5.53;2.28;;;;;;;;;;5049515;28;20056;-73
2022/01/27 10:44:05;;;;;;;4.28;2.40;;;;;;;;;;5048938;28;20052;-70
2022/01/27 10:46:34;;;;;;;5.75;2.03;;;;;;;;;;5048309;28;20045;-73
2022/01/27 10:49:10;;;;;;;7.18;2.65;;;;;;;;;;5047823;28;20049;-71
2022/01/27 10:51:44;;;;;;;4.25;1.95;;;;;;;;;;5048599;28;20380;-71
2022/01/27 10:54:20;;;;;;;3.17;1.70;;;;;;;;;;5050869;28;20052;-73
2022/01/27 10:56:49;;;;;;;7.32;1.75;;;;;;;;;;5046976;28;20080;-71
2022/01/27 10:59:21;;;;;;;6.32;1.92;;;;;;;;;;5045831;28;20089;-71
2022/01/27 11:01:50;;;;;;;3.80;1.63;;;;;;;;;;5044910;28;20393;-71
2022/01/27 11:04:20;;;;;;;6.57;2.22;;;;;;;;;;5034262;28;20053;-71
2022/01/27 11:06:57;;;;;;;8.52;2.17;;;;;;;;;;5040311;28;20045;-70
2022/01/27 11:09:26;;;;;;;6.25;2.35;;;;;;;;;;5043850;28;20135;-71
2022/01/27 11:11:56;;;;;;;6.00;2.30;;;;;;;;;;5043088;28;20144;-71
2022/01/27 11:14:26;;;;;;;6.35;2.22;;;;;;;;;;5029591;28;20052;-71
2022/01/27 11:16:57;;;;;;;13.35;2.40;;;;;;;;;;5033655;28;20076;-71
2022/01/27 11:19:53;;;;;;;3.65;1.90;;;;;;;;;;5037942;28;20048;-71
2022/01/27 11:22:43;;;;;;;;;;;;;;;;;;5046339;28;20080;-71
2022/01/27 11:27:55;;;;;;;7.07;1.80;;;;;;;;;;5043616;28;20077;-72
2022/01/27 11:30:29;;;;;;;7.68;2.25;;;;;;;;;;5038026;28;20063;-72
2022/01/27 11:33:02;;;;;;;7.28;2.25;;;;;;;;;;5046237;28;20475;-71
2022/01/27 11:36:07;;;;;;;5.55;2.42;;;;;;;;;;5036758;28;20045;-71
2022/01/27 11:38:35;;;;;;;5.60;2.10;;;;;;;;;;5040112;28;20088;-71
2022/01/27 11:41:07;;;;;;;9.45;2.83;;;;;;;;;;5048788;28;20119;-71
2022/01/27 11:43:36;;;;;;;7.35;2.72;;;;;;;;;;5049046;28;20043;-71
2022/01/27 11:46:16;;;;;;;7.95;2.60;;;;;;;;;;5040872;28;20060;-71
2022/01/27 11:48:44;;;;;;;6.32;2.65;;;;;;;;;;5032569;28;20049;-71
2022/01/27 11:51:13;;;;;;;7.22;2.90;;;;;;;;;;5049631;28;20054;-72
2022/01/27 11:53:43;;;;;;;7.32;2.25;;;;;;;;;;5039046;28;20132;-71
2022/01/27 11:56:35;;;;;;;5.97;2.83;;;;;;;;;;5032465;28;20107;-73
2022/01/27 11:59:05;;;;;;;5.13;2.42;;;;;;;;;;5044778;28;20053;-72
2022/01/27 12:01:35;;;;;;;8.32;3.13;;;;;;;;;;5047463;28;20241;-72
2022/01/27 12:04:15;;;;;;;2.70;1.00;;;;;;;;;;3798731;28;10022053;-71
2022/01/27 12:07:04;;;;;;;7.03;3.13;;;;;;;;;;2428058;28;10002517;-72
2022/01/27 12:09:34;;;;;;;8.07;3.25;;;;;;;;;;5031768;28;20037;-71
2022/01/27 12:12:04;;;;;;;9.82;3.15;;;;;;;;;;5039937;28;20539;-70
2022/01/27 12:14:56;;;;;;;7.07;3.45;;;;;;;;;;5041507;28;20049;-71
2022/01/27 12:17:28;;;;;;;10.32;3.13;;;;;;;;;;5043679;28;20056;-72
2022/01/27 12:19:57;;;;;;;8.65;3.88;;;;;;;;;;5036330;28;20055;-72
2022/01/27 12:22:28;;;;;;;7.03;3.22;;;;;;;;;;5039047;28;20041;-72
2022/01/27 12:24:57;;;;;;;7.78;3.40;;;;;;;;;;5036420;28;20053;-74
2022/01/27 12:27:26;;;;;;;9.55;4.00;;;;;;;;;;5041083;28;20309;-73
2022/01/27 12:30:15;;;;;;;8.93;4.07;;;;;;;;;;5040780;28;20064;-72
2022/01/27 12:32:46;;;;;;;12.15;3.72;;;;;;;;;;5044342;28;20069;-72
2022/01/27 12:35:16;;;;;;;10.88;5.13;;;;;;;;;;5050672;28;20098;-72
2022/01/27 12:37:46;;;;;;;9.55;4.30;;;;;;;;;;5040932;28;20061;-74
2022/01/27 12:40:17;;;;;;;12.68;5.07;;;;;;;;;;5047506;28;20144;-72
2022/01/27 12:42:49;;;;;;;9.07;4.15;;;;;;;;;;5037972;28;20080;-72
2022/01/27 12:45:25;;;;;;;10.57;4.32;;;;;;;;;;5041351;28;20049;-72
2022/01/27 12:47:56;;;;;;;11.23;4.88;;;;;;;;;;5039209;28;20148;-72
2022/01/27 12:50:25;;;;;;;11.73;4.95;;;;;;;;;;5038183;28;20445;-72
2022/01/27 12:52:58;;;;;;;9.95;4.75;;;;;;;;;;5041999;28;20353;-71
2022/01/27 12:55:30;;;;;;;10.23;4.78;;;;;;;;;;5030667;28;20049;-71
2022/01/27 12:58:00;;;;;;;13.10;5.15;;;;;;;;;;5033422;28;20049;-71
2022/01/27 13:00:30;;;;;;;12.82;4.95;;;;;;;;;;5033242;28;20420;-71
2022/01/27 13:03:01;;;;;;;11.13;5.53;;;;;;;;;;5044978;28;20052;-74
2022/01/27 13:05:35;;;;;;;13.10;6.03;;;;;;;;;;5041113;28;20055;-73
2022/01/27 13:08:04;;;;;;;13.70;5.93;;;;;;;;;;5046707;28;20040;-73
2022/01/27 13:10:33;;;;;;;12.68;4.85;;;;;;;;;;5042902;28;20307;-72
2022/01/27 13:13:07;;;;;;;11.98;5.38;;;;;;;;;;5032871;28;20148;-71
2022/01/27 13:15:36;;;;;;;15.18;5.90;;;;;;;;;;5038837;28;20138;-74
2022/01/27 13:18:14;;;;;;;13.75;6.03;;;;;;;;;;5040545;28;20052;-71
2022/01/27 13:20:46;;;;;;;16.23;6.65;;;;;;;;;;5031030;28;20069;-72
2022/01/27 13:23:22;;;;;;;15.50;5.57;;;;;;;;;;5047704;28;20045;-71
2022/01/27 13:25:54;;;;;;;14.13;5.07;;;;;;;;;;5040200;28;20596;-72
2022/01/27 13:28:25;;;;;;;14.82;6.18;;;;;;;;;;5045019;28;20515;-71
2022/01/27 13:30:54;;;;;;;15.75;6.15;;;;;;;;;;5044628;28;20048;-72
2022/01/27 13:33:27;;;;;;;19.27;7.75;;;;;;;;;;5037961;28;20126;-71
2022/01/27 13:35:58;;;;;;;16.05;6.82;;;;;;;;;;5045402;28;20056;-71
2022/01/27 13:38:30;;;;;;;18.25;7.65;;;;;;;;;;5050537;28;20049;-72
2022/01/27 13:41:19;;;;;;;19.77;7.93;;;;;;;;;;5040676;28;20412;-72
2022/01/27 13:43:49;;;;;;;18.92;7.72;;;;;;;;;;5034755;28;20464;-72
2022/01/27 13:46:34;;;;;;;18.25;7.15;;;;;;;;;;5037797;28;20060;-72
2022/01/27 13:49:03;;;;;;;;;;;;;;;;;;5038956;28;20048;-71
2022/01/27 13:51:33;;;;;;;21.15;7.95;;;;;;;;;;5040102;28;19924;-71
2022/01/27 13:54:03;;;;;;;20.20;7.72;;;;;;;;;;5041446;28;20135;-72
2022/01/27 13:56:39;;;;;;;19.45;7.78;;;;;;;;;;5043022;28;20057;-71
2022/01/27 13:59:14;;;;;;;15.70;6.55;;;;;;;;;;5042166;28;20485;-72
2022/01/27 14:01:43;;;;;;;17.55;7.18;;;;;;;;;;5043811;28;20049;-75
2022/01/27 14:04:43;;;;;;;7.55;3.20;;;;;;;;;;3454159;28;10021487;-72
2022/01/27 14:07:14;;;;;;;18.65;6.80;;;;;;;;;;3298589;28;10002077;-72
2022/01/27 14:09:46;;;;;;;16.77;7.40;;;;;;;;;;5033245;28;20041;-72
2022/01/27 14:12:19;;;;;;;24.63;8.30;;;;;;;;;;5036350;28;20176;-72
2022/01/27 14:14:49;;;;;;;15.68;6.85;;;;;;;;;;5043964;28;20048;-72
2022/01/27 14:17:25;;;;;;;17.83;8.32;;;;;;;;;;5039236;28;20092;-71
2022/01/27 14:19:55;;;;;;;22.58;7.07;;;;;;;;;;5036764;28;20118;-71
2022/01/27 14:22:30;;;;;;;21.48;7.05;;;;;;;;;;5040053;28;20489;-71
2022/01/27 14:25:06;;;;;;;22.48;7.90;;;;;;;;;;5035778;28;20045;-72
2022/01/27 14:27:35;;;;;;;22.90;8.23;;;;;;;;;;5029773;28;20148;-72
2022/01/27 14:30:05;;;;;;;15.90;6.07;;;;;;;;;;5035367;28;20060;-71
2022/01/27 14:32:34;;;;;;;22.35;8.18;;;;;;;;;;5040944;28;20115;-72
2022/01/27 14:35:06;;;;;;;18.85;8.25;;;;;;;;;;5054016;28;20265;-72
2022/01/27 14:37:37;;;;;;;19.50;8.38;;;;;;;;;;5044332;28;20064;-71
2022/01/27 14:40:26;;;;;;;22.65;8.18;;;;;;;;;;5030366;28;20135;-72
2022/01/27 14:42:59;;;;;;;24.27;8.68;;;;;;;;;;5040811;28;20076;-72
2022/01/27 14:45:29;;;;;;;21.08;8.43;;;;;;;;;;5044593;28;20052;-71
2022/01/27 14:48:03;;;;;;;23.25;8.70;;;;;;;;;;5043426;28;20080;-71
2022/01/27 14:50:32;;;;;;;19.60;7.97;;;;;;;;;;5042221;28;20057;-73
2022/01/27 14:53:03;;;;;;;23.52;8.75;;;;;;;;;;5054177;28;20210;-73
2022/01/27 14:55:35;;;;;;;23.45;7.15;;;;;;;;;;5044725;28;20052;-72
2022/01/27 14:58:04;;;;;;;21.30;9.00;;;;;;;;;;5039851;28;20048;-72
2022/01/27 15:00:32;;;;;;;19.13;8.10;;;;;;;;;;5045013;28;20678;-72
2022/01/27 15:03:01;;;;;;;18.00;7.20;;;;;;;;;;5042364;28;20049;-72
2022/01/27 15:05:30;;;;;;;20.92;7.60;;;;;;;;;;5047390;28;20107;-73
2022/01/27 15:07:59;;;;;;;24.42;8.52;;;;;;;;;;5043409;28;20412;-72
2022/01/27 15:10:30;;;;;;;19.60;7.97;;;;;;;;;;5041118;28;20080;-72
2022/01/27 15:12:59;;;;;;;19.95;7.88;;;;;;;;;;5048414;28;20049;-72
2022/01/27 15:21:01;;;;;;;21.77;7.13;;;;;;;;;;5038686;28;20076;-72
2022/01/27 15:23:29;;;;;;;22.02;7.15;;;;;;;;;;5051713;28;20091;-74
2022/01/27 15:26:00;;;;;;;16.55;7.13;;;;;;;;;;5045728;28;20060;-72
2022/01/27 15:28:28;;;;;;;18.85;7.68;;;;;;;;;;5047258;28;20076;-72